createdAt,value
2023-04-22T00:00:14.071Z,51.52
2023-04-22T00:00:36.395Z,51.56
2023-04-22T00:00:59.746Z,51.60
2023-04-22T00:01:21.705Z,51.76
2023-04-22T00:01:43.428Z,51.72
2023-04-22T00:02:05.160Z,51.56
2023-04-22T00:02:29.441Z,51.68
2023-04-22T00:02:51.321Z,51.63
2023-04-22T00:03:14.249Z,51.54
2023-04-22T00:03:36.183Z,51.70
2023-04-22T00:03:59.239Z,51.19
2023-04-22T00:04:21.569Z,51.24
2023-04-22T00:04:43.585Z,51.30
2023-04-22T00:05:06.800Z,51.45
2023-04-22T00:05:29.473Z,51.61
2023-04-22T00:05:51.289Z,51.75
2023-04-22T00:06:13.085Z,51.75
2023-04-22T00:06:36.112Z,51.52
2023-04-22T00:06:58.811Z,51.63
2023-04-22T00:07:20.490Z,51.63
2023-04-22T00:07:43.343Z,51.42
2023-04-22T00:08:05.102Z,51.62
2023-04-22T00:08:27.658Z,51.70
2023-04-22T00:08:49.249Z,51.57
2023-04-22T00:09:11.040Z,51.80
2023-04-22T00:09:32.704Z,51.78
2023-04-22T00:09:55.295Z,51.87
2023-04-22T00:10:16.960Z,51.63
2023-04-22T00:10:38.642Z,51.63
2023-04-22T00:11:01.196Z,51.75
2023-04-22T00:11:22.873Z,51.75
2023-04-22T00:11:44.500Z,51.92
2023-04-22T00:12:06.686Z,51.89
2023-04-22T00:12:28.268Z,51.76
2023-04-22T00:12:50.944Z,51.58
2023-04-22T00:13:12.517Z,51.96
2023-04-22T00:13:34.285Z,51.88
2023-04-22T00:13:55.928Z,51.60
2023-04-22T00:14:18.813Z,51.61
2023-04-22T00:14:40.435Z,51.66
2023-04-22T00:15:02.431Z,51.63
2023-04-22T00:15:25.363Z,51.56
2023-04-22T00:15:48.039Z,51.38
2023-04-22T00:16:09.777Z,51.44
2023-04-22T00:16:31.473Z,51.62
2023-04-22T00:16:53.245Z,51.46
2023-04-22T00:17:15.880Z,51.34
2023-04-22T00:17:37.607Z,50.83
2023-04-22T00:17:59.816Z,51.09
2023-04-22T00:18:21.835Z,51.36
2023-04-22T00:18:44.441Z,51.39
2023-04-22T00:19:06.165Z,51.54
2023-04-22T00:19:28.313Z,51.52
2023-04-22T00:19:49.947Z,51.54
2023-04-22T00:20:13.013Z,51.41
2023-04-22T00:20:36.397Z,51.46
2023-04-22T00:20:58.012Z,51.53
2023-04-22T00:21:19.718Z,51.61
2023-04-22T00:21:42.714Z,51.82
2023-04-22T00:22:05.656Z,51.69
2023-04-22T00:22:27.660Z,51.52
2023-04-22T00:22:49.361Z,51.58
2023-04-22T00:23:11.668Z,51.62
2023-04-22T00:23:34.436Z,51.55
2023-04-22T00:23:56.107Z,51.72
2023-04-22T00:24:17.779Z,51.79
2023-04-22T00:24:39.478Z,51.58
2023-04-22T00:25:01.169Z,51.88
2023-04-22T00:25:23.764Z,51.95
2023-04-22T00:25:45.391Z,51.89
2023-04-22T00:26:07.057Z,51.91
2023-04-22T00:26:28.730Z,51.79
2023-04-22T00:26:51.321Z,51.76
2023-04-22T00:27:13.067Z,51.72
2023-04-22T00:27:34.779Z,51.54
2023-04-22T00:27:56.405Z,51.55
2023-04-22T00:28:19.008Z,51.63
2023-04-22T00:29:20.072Z,51.03
2023-04-22T00:29:41.790Z,50.63
2023-04-22T00:30:04.817Z,50.58
2023-04-22T00:30:26.444Z,50.75
2023-04-22T00:30:48.097Z,50.57
2023-04-22T00:31:09.750Z,50.42
2023-04-22T00:31:31.787Z,50.37
2023-04-22T00:31:54.583Z,50.42
2023-04-22T00:32:16.279Z,49.87
2023-04-22T00:32:38.358Z,50.15
2023-04-22T00:33:00.189Z,49.73
2023-04-22T00:33:22.789Z,49.61
2023-04-22T00:33:44.372Z,50.32
2023-04-22T00:34:05.980Z,50.93
2023-04-22T00:34:27.569Z,50.65
2023-04-22T00:34:49.680Z,50.21
2023-04-22T00:35:12.340Z,50.07
2023-04-22T00:35:34.632Z,49.68
2023-04-22T00:35:56.272Z,49.30
2023-04-22T00:36:17.911Z,49.47
2023-04-22T00:36:39.588Z,49.45
2023-04-22T00:37:03.667Z,49.76
2023-04-22T00:37:25.700Z,49.45
2023-04-22T00:37:47.374Z,49.35
2023-04-22T00:38:09.092Z,49.33
2023-04-22T00:38:31.774Z,50.16
2023-04-22T00:38:53.515Z,49.93
2023-04-22T00:39:15.402Z,49.40
2023-04-22T00:39:39.357Z,49.42
2023-04-22T00:40:01.409Z,49.68
2023-04-22T00:40:24.005Z,49.67
2023-04-22T00:40:46.329Z,49.30
2023-04-22T00:41:08.438Z,49.74
2023-04-22T00:41:31.170Z,49.88
2023-04-22T00:41:54.643Z,49.34
2023-04-22T00:42:16.947Z,49.33
2023-04-22T00:42:39.573Z,49.52
2023-04-22T00:43:02.771Z,49.37
2023-04-22T00:43:25.503Z,49.74
2023-04-22T00:43:47.170Z,49.84
2023-04-22T00:44:10.177Z,49.98
2023-04-22T00:44:32.663Z,50.04
2023-04-22T00:44:54.478Z,50.70
2023-04-22T00:45:18.202Z,50.71
2023-04-22T00:45:40.043Z,50.45
2023-04-22T00:46:01.711Z,50.75
2023-04-22T00:46:24.290Z,50.78
2023-04-22T00:46:47.201Z,50.95
2023-04-22T00:47:09.283Z,50.99
2023-04-22T00:47:32.294Z,50.93
2023-04-22T00:47:54.158Z,50.81
2023-04-22T00:48:16.812Z,50.75
2023-04-22T00:48:38.880Z,50.85
2023-04-22T00:49:01.207Z,50.90
2023-04-22T00:49:25.245Z,50.53
2023-04-22T00:49:50.298Z,50.26
2023-04-22T00:50:12.023Z,50.26
2023-04-22T00:50:33.674Z,50.30
2023-04-22T00:50:55.265Z,50.52
2023-04-22T00:51:16.911Z,50.40
2023-04-22T00:51:39.472Z,50.13
2023-04-22T00:52:02.488Z,49.62
2023-04-22T00:52:24.173Z,49.63
2023-04-22T00:52:45.920Z,50.13
2023-04-22T00:53:07.568Z,49.95
2023-04-22T00:53:29.270Z,50.31
2023-04-22T00:53:51.882Z,50.55
2023-04-22T00:54:13.553Z,50.34
2023-04-22T00:54:35.760Z,50.26
2023-04-22T00:54:57.649Z,50.28
2023-04-22T00:55:19.551Z,50.00
2023-04-22T00:55:42.280Z,50.01
2023-04-22T00:56:04.397Z,49.76
2023-04-22T00:56:27.964Z,49.31
2023-04-22T00:56:49.757Z,49.11
2023-04-22T00:57:12.005Z,49.16
2023-04-22T00:57:36.611Z,49.26
2023-04-22T00:58:00.624Z,49.15
2023-04-22T00:58:25.819Z,49.02
2023-04-22T00:58:47.495Z,48.98
2023-04-22T00:59:10.980Z,49.33
2023-04-22T00:59:33.350Z,49.50
2023-04-22T00:59:55.555Z,49.01
2023-04-22T01:00:20.032Z,48.61
2023-04-22T01:00:41.894Z,48.64
2023-04-22T01:01:05.098Z,49.08
2023-04-22T01:01:26.975Z,49.06
2023-04-22T01:01:49.158Z,49.28
2023-04-22T01:02:11.511Z,49.43
2023-04-22T01:02:34.611Z,49.26
2023-04-22T01:02:57.567Z,49.58
2023-04-22T01:03:20.790Z,49.56
2023-04-22T01:03:43.101Z,49.57
2023-04-22T01:04:06.597Z,49.61
2023-04-22T01:04:28.583Z,49.50
2023-04-22T01:04:50.363Z,49.41
2023-04-22T01:05:12.068Z,49.40
2023-04-22T01:05:34.588Z,49.69
2023-04-22T01:05:57.663Z,49.77
2023-04-22T01:06:19.983Z,49.41
2023-04-22T01:06:43.937Z,49.25
2023-04-22T01:07:06.921Z,48.95
2023-04-22T01:07:29.799Z,48.42
2023-04-22T01:07:51.382Z,48.24
2023-04-22T01:08:13.044Z,48.46
2023-04-22T01:08:34.800Z,48.32
2023-04-22T01:08:56.478Z,48.21
2023-04-22T01:09:20.097Z,48.54
2023-04-22T01:09:41.960Z,48.76
2023-04-22T01:10:04.725Z,48.76
2023-04-22T01:10:26.417Z,48.19
2023-04-22T01:10:48.979Z,49.25
2023-04-22T01:11:10.701Z,50.33
2023-04-22T01:11:33.280Z,49.99
2023-04-22T01:11:56.245Z,50.00
2023-04-22T01:12:26.718Z,50.10
2023-04-22T01:12:55.930Z,50.04
2023-04-22T01:13:42.487Z,50.22
2023-04-22T01:14:05.890Z,50.11
2023-04-22T01:14:28.811Z,50.37
2023-04-22T01:14:50.502Z,50.34
2023-04-22T01:15:12.635Z,49.96
2023-04-22T01:15:35.564Z,50.22
2023-04-22T01:15:57.834Z,50.20
2023-04-22T01:16:20.393Z,49.91
2023-04-22T01:16:43.744Z,49.60
2023-04-22T01:17:06.679Z,49.46
2023-04-22T01:17:31.870Z,49.38
2023-04-22T01:17:54.968Z,49.65
2023-04-22T01:18:16.851Z,49.25
2023-04-22T01:18:38.797Z,49.08
2023-04-22T01:19:01.894Z,48.87
2023-04-22T01:19:23.842Z,49.11
2023-04-22T01:19:46.186Z,48.89
2023-04-22T01:20:10.345Z,48.78
2023-04-22T01:20:33.050Z,48.79
2023-04-22T01:20:54.738Z,48.60
2023-04-22T01:21:16.998Z,48.76
2023-04-22T01:21:40.726Z,48.60
2023-04-22T01:22:04.421Z,48.88
2023-04-22T01:22:33.453Z,48.74
2023-04-22T01:22:56.411Z,48.78
2023-04-22T01:23:21.404Z,48.57
2023-04-22T01:23:44.148Z,48.55
2023-04-22T01:24:06.669Z,48.49
2023-04-22T01:24:28.424Z,48.19
2023-04-22T01:24:50.507Z,47.62
2023-04-22T01:25:13.432Z,47.34
2023-04-22T01:25:35.130Z,47.87
2023-04-22T01:25:57.561Z,48.46
2023-04-22T01:26:19.241Z,48.68
2023-04-22T01:26:42.116Z,48.49
2023-04-22T01:27:03.856Z,47.89
2023-04-22T01:27:25.842Z,47.91
2023-04-22T01:27:47.644Z,48.19
2023-04-22T01:28:09.652Z,47.63
2023-04-22T01:28:32.904Z,47.65
2023-04-22T01:28:54.619Z,47.78
2023-04-22T01:29:16.428Z,48.28
2023-04-22T01:29:38.957Z,48.20
2023-04-22T01:30:00.872Z,47.90
2023-04-22T01:30:23.506Z,47.95
2023-04-22T01:30:45.373Z,48.16
2023-04-22T01:31:07.100Z,47.66
2023-04-22T01:31:29.376Z,47.53
2023-04-22T01:31:53.903Z,47.70
2023-04-22T01:32:15.622Z,47.62
2023-04-22T01:32:38.902Z,47.76
2023-04-22T01:33:00.852Z,47.82
2023-04-22T01:33:23.548Z,48.01
2023-04-22T01:33:45.820Z,48.19
2023-04-22T01:34:09.399Z,48.22
2023-04-22T01:34:31.962Z,48.71
2023-04-22T01:34:54.559Z,48.58
2023-04-22T01:35:16.269Z,48.45
2023-04-22T01:35:38.242Z,48.19
2023-04-22T01:36:00.022Z,48.13
2023-04-22T01:36:21.863Z,48.41
2023-04-22T01:36:45.422Z,48.52
2023-04-22T01:37:07.286Z,48.68
2023-04-22T01:37:29.495Z,48.53
2023-04-22T01:37:51.072Z,48.47
2023-04-22T01:38:13.325Z,48.19
2023-04-22T01:38:37.280Z,47.93
2023-04-22T01:38:59.732Z,48.13
2023-04-22T01:39:21.858Z,47.88
2023-04-22T01:39:43.749Z,48.64
2023-04-22T01:40:09.162Z,48.78
2023-04-22T01:40:31.849Z,48.14
2023-04-22T01:40:53.804Z,48.20
2023-04-22T01:41:16.790Z,48.25
2023-04-22T01:41:38.594Z,48.49
2023-04-22T01:42:02.090Z,48.45
2023-04-22T01:42:24.534Z,48.53
2023-04-22T01:42:47.363Z,48.27
2023-04-22T01:43:11.040Z,47.83
2023-04-22T01:43:34.017Z,47.84
2023-04-22T01:43:58.455Z,47.92
2023-04-22T01:44:20.192Z,48.07
2023-04-22T01:44:42.956Z,48.05
2023-04-22T01:45:05.618Z,47.87
2023-04-22T01:45:28.022Z,47.74
2023-04-22T01:45:50.694Z,47.75
2023-04-22T01:46:12.393Z,47.84
2023-04-22T01:46:34.261Z,47.95
2023-04-22T01:46:56.010Z,47.99
2023-04-22T01:47:17.716Z,48.21
2023-04-22T01:47:40.342Z,48.30
2023-04-22T01:48:02.209Z,48.44
2023-04-22T01:48:23.909Z,48.48
2023-04-22T01:48:50.393Z,48.47
2023-04-22T01:49:13.076Z,48.42
2023-04-22T01:49:34.729Z,48.74
2023-04-22T01:49:56.313Z,48.81
2023-04-22T01:50:18.035Z,48.68
2023-04-22T01:50:41.544Z,48.70
2023-04-22T01:51:03.456Z,48.61
2023-04-22T01:51:25.221Z,48.36
2023-04-22T01:51:46.826Z,47.91
2023-04-22T01:52:08.411Z,47.84
2023-04-22T01:52:31.884Z,47.96
2023-04-22T01:52:53.611Z,48.29
2023-04-22T01:53:16.924Z,48.09
2023-04-22T01:53:41.003Z,48.17
2023-04-22T01:54:04.130Z,48.28
2023-04-22T01:54:25.928Z,48.24
2023-04-22T01:54:48.675Z,48.48
2023-04-22T01:55:10.780Z,48.57
2023-04-22T01:55:36.063Z,48.45
2023-04-22T01:55:57.739Z,48.27
2023-04-22T01:56:19.539Z,47.96
2023-04-22T01:56:43.924Z,47.92
2023-04-22T01:57:10.572Z,47.85
2023-04-22T01:57:32.375Z,48.06
2023-04-22T01:57:55.165Z,48.12
2023-04-22T01:58:16.828Z,48.24
2023-04-22T01:58:39.394Z,48.53
2023-04-22T01:59:02.081Z,48.66
2023-04-22T01:59:27.524Z,48.97
2023-04-22T01:59:49.173Z,49.09
2023-04-22T02:00:12.419Z,48.96
2023-04-22T02:00:43.523Z,48.78
2023-04-22T02:01:06.399Z,48.47
2023-04-22T02:01:28.125Z,48.53
2023-04-22T02:01:50.476Z,48.57
2023-04-22T02:02:13.224Z,48.18
2023-04-22T02:02:36.254Z,48.16
2023-04-22T02:02:58.000Z,48.11
2023-04-22T02:03:20.234Z,48.28
2023-04-22T02:03:43.116Z,48.34
2023-04-22T02:04:08.027Z,48.14
2023-04-22T02:04:29.856Z,48.16
2023-04-22T02:04:51.676Z,48.11
2023-04-22T02:05:13.534Z,48.09
2023-04-22T02:05:35.393Z,48.23
2023-04-22T02:05:57.987Z,47.88
2023-04-22T02:06:19.583Z,48.10
2023-04-22T02:06:41.345Z,47.99
2023-04-22T02:07:03.921Z,47.87
2023-04-22T02:07:27.050Z,47.86
2023-04-22T02:07:51.954Z,47.92
2023-04-22T02:08:13.542Z,47.95
2023-04-22T02:08:35.169Z,47.69
2023-04-22T02:08:59.121Z,47.77
2023-04-22T02:09:20.752Z,48.01
2023-04-22T02:09:42.572Z,47.99
2023-04-22T02:10:05.501Z,47.99
2023-04-22T02:10:28.185Z,48.16
2023-04-22T02:10:49.789Z,48.47
2023-04-22T02:11:11.434Z,48.65
2023-04-22T02:11:33.152Z,48.14
2023-04-22T02:11:55.755Z,48.02
2023-04-22T02:12:17.329Z,48.28
2023-04-22T02:12:39.016Z,48.07
2023-04-22T02:13:00.680Z,48.02
2023-04-22T02:13:22.387Z,48.19
2023-04-22T02:13:45.969Z,48.37
2023-04-22T02:14:08.498Z,48.32
2023-04-22T02:14:30.391Z,48.20
2023-04-22T02:14:57.390Z,48.50
2023-04-22T02:15:22.708Z,49.09
2023-04-22T02:15:45.926Z,48.60
2023-04-22T02:16:08.189Z,48.92
2023-04-22T02:16:30.037Z,48.97
2023-04-22T02:16:52.789Z,49.41
2023-04-22T02:17:14.410Z,49.45
2023-04-22T02:17:36.144Z,49.47
2023-04-22T02:17:57.789Z,49.26
2023-04-22T02:18:19.560Z,49.26
2023-04-22T02:18:42.127Z,49.10
2023-04-22T02:19:03.912Z,48.93
2023-04-22T02:19:26.181Z,48.99
2023-04-22T02:19:47.863Z,48.95
2023-04-22T02:20:12.005Z,49.01
2023-04-22T02:20:33.743Z,49.28
2023-04-22T02:20:55.437Z,49.14
2023-04-22T02:21:16.990Z,49.39
2023-04-22T02:21:41.227Z,49.23
2023-04-22T02:22:02.954Z,49.32
2023-04-22T02:22:24.816Z,49.37
2023-04-22T02:22:46.558Z,49.29
2023-04-22T02:23:09.218Z,49.22
2023-04-22T02:23:31.121Z,49.23
2023-04-22T02:23:52.755Z,49.06
2023-04-22T02:24:16.463Z,48.98
2023-04-22T02:24:38.244Z,49.14
2023-04-22T02:25:01.292Z,49.13
2023-04-22T02:25:22.911Z,49.25
2023-04-22T02:25:49.412Z,49.27
2023-04-22T02:26:11.435Z,49.29
2023-04-22T02:26:33.051Z,49.24
2023-04-22T02:26:56.491Z,49.13
2023-04-22T02:27:18.135Z,49.19
2023-04-22T02:27:42.465Z,49.13
2023-04-22T02:28:04.260Z,49.20
2023-04-22T02:28:27.313Z,49.05
2023-04-22T02:28:48.985Z,48.56
2023-04-22T02:29:10.741Z,48.46
2023-04-22T02:29:32.384Z,48.29
2023-04-22T02:29:55.025Z,48.50
2023-04-22T02:30:16.690Z,48.97
2023-04-22T02:30:38.282Z,48.99
2023-04-22T02:31:00.075Z,48.82
2023-04-22T02:31:21.730Z,48.70
2023-04-22T02:31:44.542Z,48.81
2023-04-22T02:32:07.074Z,48.65
2023-04-22T02:32:28.681Z,48.87
2023-04-22T02:32:50.366Z,48.79
2023-04-22T02:33:13.104Z,48.82
2023-04-22T02:33:34.730Z,49.02
2023-04-22T02:33:56.406Z,48.59
2023-04-22T02:34:18.199Z,48.96
2023-04-22T02:34:42.585Z,49.00
2023-04-22T02:35:05.295Z,49.23
2023-04-22T02:35:26.929Z,48.73
2023-04-22T02:35:48.521Z,48.56
2023-04-22T02:36:13.294Z,48.00
2023-04-22T02:36:35.945Z,48.11
2023-04-22T02:36:57.682Z,48.09
2023-04-22T02:37:19.367Z,48.46
2023-04-22T02:37:40.992Z,48.08
2023-04-22T02:38:02.610Z,48.27
2023-04-22T02:38:25.220Z,48.38
2023-04-22T02:38:46.862Z,48.29
2023-04-22T02:39:09.995Z,48.49
2023-04-22T02:39:33.242Z,48.52
2023-04-22T02:39:56.136Z,48.38
2023-04-22T02:40:17.700Z,48.66
2023-04-22T02:40:40.331Z,48.73
2023-04-22T02:41:01.970Z,48.67
2023-04-22T02:41:24.516Z,48.71
2023-04-22T02:41:47.211Z,48.38
2023-04-22T02:42:09.399Z,48.62
2023-04-22T02:42:31.067Z,48.75
2023-04-22T02:42:52.662Z,48.76
2023-04-22T02:43:14.320Z,48.76
2023-04-22T02:43:36.920Z,48.53
2023-04-22T02:43:58.558Z,48.44
2023-04-22T02:44:21.720Z,48.47
2023-04-22T02:44:43.408Z,48.41
2023-04-22T02:45:07.175Z,48.29
2023-04-22T02:45:28.833Z,48.31
2023-04-22T02:45:50.706Z,48.30
2023-04-22T02:46:13.118Z,47.62
2023-04-22T02:46:36.619Z,47.75
2023-04-22T02:46:58.500Z,47.52
2023-04-22T02:47:20.522Z,47.51
2023-04-22T02:47:43.710Z,47.60
2023-04-22T02:48:05.581Z,47.38
2023-04-22T02:48:27.196Z,47.81
2023-04-22T02:48:49.837Z,47.96
2023-04-22T02:49:11.459Z,48.12
2023-04-22T02:49:33.136Z,48.41
2023-04-22T02:49:54.812Z,48.23
2023-04-22T02:50:16.587Z,47.81
2023-04-22T02:50:39.326Z,47.78
2023-04-22T02:51:00.908Z,47.59
2023-04-22T02:51:22.878Z,47.63
2023-04-22T02:51:44.728Z,47.81
2023-04-22T02:52:07.284Z,48.10
2023-04-22T02:52:28.947Z,48.04
2023-04-22T02:52:51.302Z,48.51
2023-04-22T02:53:12.915Z,48.18
2023-04-22T02:53:36.201Z,48.13
2023-04-22T02:53:57.795Z,47.91
2023-04-22T02:54:19.430Z,47.54
2023-04-22T02:54:42.504Z,47.58
2023-04-22T02:55:05.050Z,47.42
2023-04-22T02:55:28.278Z,47.78
2023-04-22T02:55:49.924Z,47.65
2023-04-22T02:56:11.495Z,47.81
2023-04-22T02:56:33.082Z,47.92
2023-04-22T02:56:54.759Z,47.89
2023-04-22T02:57:17.395Z,47.86
2023-04-22T02:57:39.020Z,48.26
2023-04-22T02:58:00.666Z,48.03
2023-04-22T02:58:22.422Z,48.20
2023-04-22T02:58:45.109Z,48.11
2023-04-22T02:59:06.776Z,48.25
2023-04-22T02:59:28.438Z,48.01
2023-04-22T02:59:50.482Z,47.75
2023-04-22T03:00:14.870Z,47.65
2023-04-22T03:00:36.504Z,47.59
2023-04-22T03:00:59.145Z,47.58
2023-04-22T03:01:20.860Z,47.76
2023-04-22T03:01:42.610Z,48.05
2023-04-22T03:02:10.603Z,48.06
2023-04-22T03:02:45.908Z,48.03
2023-04-22T03:03:09.686Z,47.86
2023-04-22T03:03:31.965Z,47.69
2023-04-22T03:03:54.029Z,47.98
2023-04-22T03:04:21.988Z,48.13
2023-04-22T03:04:43.880Z,48.01
2023-04-22T03:05:06.510Z,48.08
2023-04-22T03:05:29.110Z,48.07
2023-04-22T03:05:50.778Z,47.88
2023-04-22T03:06:13.428Z,48.07
2023-04-22T03:06:35.050Z,47.42
2023-04-22T03:06:57.455Z,47.30
2023-04-22T03:07:19.175Z,47.69
2023-04-22T03:07:40.844Z,47.67
2023-04-22T03:08:03.510Z,47.58
2023-04-22T03:08:25.669Z,47.76
2023-04-22T03:08:47.307Z,48.13
2023-04-22T03:09:08.936Z,47.32
2023-04-22T03:09:31.553Z,47.11
2023-04-22T03:09:55.893Z,47.05
2023-04-22T03:10:18.277Z,47.04
2023-04-22T03:10:39.919Z,47.42
2023-04-22T03:11:01.986Z,47.52
2023-04-22T03:11:24.562Z,47.75
2023-04-22T03:11:46.221Z,47.07
2023-04-22T03:12:07.989Z,46.97
2023-04-22T03:12:31.081Z,46.86
2023-04-22T03:12:52.733Z,46.80
2023-04-22T03:13:16.617Z,46.61
2023-04-22T03:13:39.127Z,46.93
2023-04-22T03:14:00.928Z,47.07
2023-04-22T03:14:22.603Z,46.83
2023-04-22T03:14:45.482Z,46.98
2023-04-22T03:15:08.222Z,47.07
2023-04-22T03:15:30.599Z,47.21
2023-04-22T03:15:52.215Z,47.46
2023-04-22T03:16:15.371Z,47.35
2023-04-22T03:16:37.342Z,47.25
2023-04-22T03:17:00.452Z,47.28
2023-04-22T03:17:22.397Z,47.30
2023-04-22T03:17:46.080Z,47.30
2023-04-22T03:18:09.494Z,47.40
2023-04-22T03:18:31.366Z,47.47
2023-04-22T03:18:53.007Z,47.75
2023-04-22T03:19:16.641Z,47.90
2023-04-22T03:19:39.705Z,47.63
2023-04-22T03:20:01.684Z,47.46
2023-04-22T03:20:24.263Z,47.68
2023-04-22T03:20:45.950Z,47.79
2023-04-22T03:21:09.001Z,48.00
2023-04-22T03:21:32.257Z,47.65
2023-04-22T03:21:54.089Z,47.75
2023-04-22T03:22:15.952Z,48.06
2023-04-22T03:22:37.677Z,47.50
2023-04-22T03:23:01.776Z,47.11
2023-04-22T03:23:23.389Z,47.14
2023-04-22T03:23:45.389Z,47.25
2023-04-22T03:24:07.303Z,47.20
2023-04-22T03:24:31.064Z,47.56
2023-04-22T03:24:58.706Z,47.38
2023-04-22T03:25:22.736Z,47.18
2023-04-22T03:25:48.839Z,47.30
2023-04-22T03:26:10.479Z,47.34
2023-04-22T03:26:33.212Z,47.13
2023-04-22T03:26:55.235Z,47.31
2023-04-22T03:27:16.900Z,47.39
2023-04-22T03:27:39.462Z,47.24
2023-04-22T03:28:01.099Z,47.69
2023-04-22T03:28:22.909Z,47.63
2023-04-22T03:28:45.886Z,47.15
2023-04-22T03:29:08.496Z,47.44
2023-04-22T03:29:30.124Z,47.73
2023-04-22T03:29:51.712Z,46.98
2023-04-22T03:30:13.538Z,46.98
2023-04-22T03:30:36.155Z,47.21
2023-04-22T03:30:58.000Z,47.28
2023-04-22T03:31:19.691Z,47.16
2023-04-22T03:31:42.822Z,47.34
2023-04-22T03:32:04.546Z,47.33
2023-04-22T03:32:27.258Z,47.21
2023-04-22T03:33:11.421Z,47.87
2023-04-22T03:33:47.206Z,47.87
2023-04-22T03:34:17.792Z,47.56
2023-04-22T03:34:40.644Z,47.28
2023-04-22T03:35:05.578Z,47.20
2023-04-22T03:35:27.252Z,47.06
2023-04-22T03:35:51.312Z,47.24
2023-04-22T03:36:14.002Z,47.17
2023-04-22T03:36:35.664Z,47.35
2023-04-22T03:36:57.252Z,47.31
2023-04-22T03:37:20.052Z,46.84
2023-04-22T03:37:42.684Z,47.08
2023-04-22T03:38:07.782Z,47.17
2023-04-22T03:38:31.835Z,47.27
2023-04-22T03:38:54.489Z,47.38
2023-04-22T03:39:19.130Z,47.36
2023-04-22T03:39:41.561Z,47.05
2023-04-22T03:40:07.411Z,47.20
2023-04-22T03:40:30.237Z,47.31
2023-04-22T03:40:51.982Z,47.14
2023-04-22T03:41:23.490Z,47.10
2023-04-22T03:41:45.133Z,47.25
2023-04-22T03:42:08.132Z,46.96
2023-04-22T03:42:33.915Z,46.73
2023-04-22T03:42:55.961Z,46.77
2023-04-22T03:43:17.786Z,46.65
2023-04-22T03:43:48.345Z,46.96
2023-04-22T03:44:10.498Z,46.93
2023-04-22T03:44:33.222Z,47.04
2023-04-22T03:44:57.013Z,46.94
2023-04-22T03:45:22.044Z,46.84
2023-04-22T03:45:56.130Z,46.96
2023-04-22T03:46:20.981Z,47.03
2023-04-22T03:46:53.785Z,46.85
2023-04-22T03:47:20.190Z,46.92
2023-04-22T03:47:47.327Z,46.88
2023-04-22T03:48:20.243Z,46.96
2023-04-22T03:48:44.508Z,47.06
2023-04-22T03:49:15.836Z,47.20
2023-04-22T03:49:38.935Z,47.26
2023-04-22T03:50:01.146Z,47.13
2023-04-22T03:50:26.813Z,46.98
2023-04-22T03:50:50.653Z,46.83
2023-04-22T03:51:12.478Z,46.84
2023-04-22T03:51:35.721Z,46.77
2023-04-22T03:52:02.460Z,47.01
2023-04-22T03:52:25.020Z,46.92
2023-04-22T03:52:52.965Z,46.90
2023-04-22T03:53:16.324Z,46.92
2023-04-22T03:53:38.748Z,47.36
2023-04-22T03:54:02.606Z,47.09
2023-04-22T03:54:27.354Z,47.54
2023-04-22T03:54:50.413Z,47.26
2023-04-22T03:55:13.836Z,46.92
2023-04-22T03:55:36.602Z,47.09
2023-04-22T03:55:58.238Z,46.83
2023-04-22T03:56:20.417Z,46.76
2023-04-22T03:56:43.573Z,46.97
2023-04-22T03:57:06.424Z,47.28
2023-04-22T03:57:28.175Z,47.28
2023-04-22T03:57:50.414Z,47.36
2023-04-22T03:58:12.094Z,47.19
2023-04-22T03:58:33.770Z,47.40
2023-04-22T03:59:00.516Z,47.27
2023-04-22T03:59:22.165Z,46.82
2023-04-22T03:59:44.313Z,46.88
2023-04-22T04:00:08.382Z,46.89
2023-04-22T04:00:36.755Z,46.88
2023-04-22T04:01:04.376Z,47.34
2023-04-22T04:01:26.321Z,47.39
2023-04-22T04:01:52.821Z,47.26
2023-04-22T04:02:17.982Z,47.32
2023-04-22T04:02:40.537Z,47.17
2023-04-22T04:03:04.782Z,47.28
2023-04-22T04:03:30.247Z,47.28
2023-04-22T04:03:53.196Z,47.42
2023-04-22T04:04:16.336Z,47.62
2023-04-22T04:04:57.482Z,47.40
2023-04-22T04:05:19.956Z,47.19
2023-04-22T04:05:42.319Z,47.30
2023-04-22T04:06:05.025Z,47.20
2023-04-22T04:06:28.082Z,47.13
2023-04-22T04:06:49.653Z,47.09
2023-04-22T04:07:11.289Z,46.92
2023-04-22T04:07:32.976Z,46.98
2023-04-22T04:07:56.509Z,46.95
2023-04-22T04:08:19.260Z,46.98
2023-04-22T04:08:40.941Z,47.21
2023-04-22T04:09:03.755Z,46.77
2023-04-22T04:09:26.723Z,46.62
2023-04-22T04:09:48.563Z,46.56
2023-04-22T04:10:11.540Z,46.44
2023-04-22T04:10:34.655Z,46.45
2023-04-22T04:10:57.476Z,46.47
2023-04-22T04:11:20.833Z,46.31
2023-04-22T04:11:42.983Z,46.65
2023-04-22T04:12:05.813Z,46.72
2023-04-22T04:12:32.446Z,46.79
2023-04-22T04:12:55.904Z,46.78
2023-04-22T04:13:18.891Z,46.71
2023-04-22T04:13:57.985Z,46.34
2023-04-22T04:14:24.944Z,46.36
2023-04-22T04:14:47.282Z,46.31
2023-04-22T04:15:12.558Z,46.52
2023-04-22T04:15:36.433Z,46.76
2023-04-22T04:16:00.168Z,46.72
2023-04-22T04:16:23.778Z,46.52
2023-04-22T04:16:51.463Z,46.45
2023-04-22T04:17:21.667Z,46.59
2023-04-22T04:17:43.553Z,46.30
2023-04-22T04:18:05.345Z,46.03
2023-04-22T04:18:29.514Z,46.43
2023-04-22T04:18:51.820Z,46.35
2023-04-22T04:19:16.627Z,46.39
2023-04-22T04:19:38.614Z,46.28
2023-04-22T04:20:00.477Z,46.46
2023-04-22T04:20:22.338Z,46.25
2023-04-22T04:20:45.892Z,46.44
2023-04-22T04:21:07.827Z,46.46
2023-04-22T04:21:34.264Z,46.53
2023-04-22T04:21:56.972Z,46.58
2023-04-22T04:22:20.519Z,46.81
2023-04-22T04:22:50.301Z,46.59
2023-04-22T04:23:12.012Z,46.34
2023-04-22T04:23:33.858Z,46.32
2023-04-22T04:23:56.144Z,46.63
2023-04-22T04:24:22.839Z,46.65
2023-04-22T04:24:47.271Z,46.53
2023-04-22T04:25:14.267Z,46.61
2023-04-22T04:25:43.672Z,46.78
2023-04-22T04:26:08.136Z,46.61
2023-04-22T04:26:34.528Z,46.27
2023-04-22T04:27:04.874Z,46.32
2023-04-22T04:27:33.571Z,45.91
2023-04-22T04:27:55.405Z,46.00
2023-04-22T04:28:17.708Z,46.09
2023-04-22T04:28:39.619Z,46.47
2023-04-22T04:29:02.643Z,46.66
2023-04-22T04:29:24.908Z,46.65
2023-04-22T04:29:56.910Z,46.62
2023-04-22T04:30:33.443Z,46.59
2023-04-22T04:30:56.147Z,46.58
2023-04-22T04:31:18.026Z,46.76
2023-04-22T04:31:39.891Z,46.75
2023-04-22T04:32:03.210Z,46.58
2023-04-22T04:32:25.332Z,46.13
2023-04-22T04:32:48.130Z,45.97
2023-04-22T04:33:12.136Z,46.04
2023-04-22T04:33:36.925Z,45.77
2023-04-22T04:33:59.096Z,45.73
2023-04-22T04:34:20.950Z,46.03
2023-04-22T04:34:42.937Z,46.00
2023-04-22T04:35:07.219Z,45.96
2023-04-22T04:35:29.476Z,46.17
2023-04-22T04:35:52.525Z,46.24
2023-04-22T04:36:17.514Z,46.19
2023-04-22T04:36:40.316Z,46.40
2023-04-22T04:37:14.684Z,46.29
2023-04-22T04:37:50.667Z,46.10
2023-04-22T04:38:12.737Z,46.27
2023-04-22T04:38:35.420Z,46.40
2023-04-22T04:38:57.296Z,46.82
2023-04-22T04:39:20.385Z,46.82
2023-04-22T04:39:43.405Z,46.72
2023-04-22T04:40:10.172Z,46.60
2023-04-22T04:40:40.604Z,46.39
2023-04-22T04:41:08.586Z,46.64
2023-04-22T04:41:33.186Z,46.43
2023-04-22T04:41:55.204Z,46.51
2023-04-22T04:42:18.098Z,46.56
2023-04-22T04:42:47.484Z,45.97
2023-04-22T04:43:16.201Z,46.05
2023-04-22T04:43:46.268Z,46.20
2023-04-22T04:44:17.413Z,46.22
2023-04-22T04:44:39.983Z,46.29
2023-04-22T04:45:01.881Z,46.15
2023-04-22T04:45:24.826Z,46.24
2023-04-22T04:45:48.673Z,46.23
2023-04-22T04:46:13.793Z,46.42
2023-04-22T04:46:37.687Z,46.37
2023-04-22T04:46:59.826Z,46.36
2023-04-22T04:47:22.706Z,46.62
2023-04-22T04:47:45.133Z,46.93
2023-04-22T04:48:15.469Z,47.14
2023-04-22T04:48:42.335Z,47.05
2023-04-22T04:49:04.590Z,46.79
2023-04-22T04:49:32.517Z,46.70
2023-04-22T04:49:55.476Z,46.67
2023-04-22T04:50:17.215Z,46.47
2023-04-22T04:50:39.542Z,46.58
2023-04-22T04:51:01.185Z,46.54
2023-04-22T04:51:27.161Z,46.15
2023-04-22T04:51:52.363Z,46.08
2023-04-22T04:52:14.144Z,46.17
2023-04-22T04:52:36.387Z,46.17
2023-04-22T04:52:59.116Z,46.18
2023-04-22T04:53:27.650Z,46.32
2023-04-22T04:53:50.398Z,46.43
2023-04-22T04:54:12.307Z,46.44
2023-04-22T04:54:36.289Z,46.46
2023-04-22T04:54:57.905Z,46.64
2023-04-22T04:55:20.482Z,46.38
2023-04-22T04:55:43.705Z,46.49
2023-04-22T04:56:13.951Z,46.45
2023-04-22T04:56:36.190Z,46.21
2023-04-22T04:56:58.474Z,46.69
2023-04-22T04:57:20.355Z,46.53
2023-04-22T04:57:43.967Z,46.41
2023-04-22T04:58:07.507Z,46.52